createdAt,value
2019-01-15T00:00:25.108Z,5.60
2019-01-15T00:02:53.602Z,6.50
2019-01-15T00:05:22.385Z,5.50
2019-01-15T00:07:50.874Z,9.20
2019-01-15T00:10:19.787Z,7.60
2019-01-15T00:12:48.582Z,7.37
2019-01-15T00:15:17.155Z,7.97
2019-01-15T00:17:45.564Z,9.63
2019-01-15T00:20:14.123Z,5.40
2019-01-15T00:22:42.699Z,5.78
2019-01-15T00:25:11.476Z,6.00
2019-01-15T00:27:40.286Z,6.83
2019-01-15T00:30:10.799Z,4.95
2019-01-15T00:32:39.510Z,5.40
2019-01-15T00:35:08.807Z,6.55
2019-01-15T00:37:37.404Z,5.47
2019-01-15T00:40:09.164Z,6.85
2019-01-15T00:42:37.662Z,3.40
2019-01-15T00:45:08.943Z,7.03
2019-01-15T00:47:37.644Z,6.25
2019-01-15T00:50:07.676Z,5.90
2019-01-15T00:52:36.264Z,6.58
2019-01-15T00:55:05.037Z,6.00
2019-01-15T00:57:33.680Z,4.90
2019-01-15T01:00:02.019Z,6.67
2019-01-15T01:02:30.367Z,6.42
2019-01-15T01:04:58.920Z,6.28
2019-01-15T01:07:27.361Z,7.40
2019-01-15T01:09:55.968Z,9.05
2019-01-15T01:12:24.424Z,7.28
2019-01-15T01:14:53.110Z,8.80
2019-01-15T01:17:21.553Z,5.28
2019-01-15T01:19:50.174Z,6.15
2019-01-15T01:22:18.691Z,6.42
2019-01-15T01:24:47.254Z,8.18
2019-01-15T01:27:15.837Z,7.03
2019-01-15T01:29:46.165Z,8.18
2019-01-15T01:32:14.929Z,6.60
2019-01-15T01:34:43.600Z,6.47
2019-01-15T01:37:11.993Z,7.50
2019-01-15T01:39:40.376Z,5.90
2019-01-15T01:42:09.039Z,6.00
2019-01-15T01:44:37.607Z,9.38
2019-01-15T01:47:06.110Z,10.45
2019-01-15T01:49:35.957Z,5.75
2019-01-15T01:52:04.738Z,6.62
2019-01-15T01:54:33.128Z,6.67
2019-01-15T01:57:03.479Z,6.47
2019-01-15T01:59:31.876Z,10.23
2019-01-15T02:02:00.304Z,9.00
2019-01-15T02:04:28.848Z,8.83
2019-01-15T02:06:57.353Z,8.15
2019-01-15T02:09:25.856Z,7.00
2019-01-15T02:11:54.279Z,6.55
2019-01-15T02:14:22.680Z,8.13
2019-01-15T02:16:51.319Z,6.78
2019-01-15T02:19:19.828Z,6.37
2019-01-15T02:21:48.309Z,7.40
2019-01-15T02:24:17.354Z,5.33
2019-01-15T02:26:45.975Z,7.83
2019-01-15T02:29:14.666Z,8.80
2019-01-15T02:31:43.245Z,7.57
2019-01-15T02:34:11.801Z,10.00
2019-01-15T02:36:40.569Z,14.38
2019-01-15T02:39:09.654Z,6.08
2019-01-15T02:41:38.122Z,6.53
2019-01-15T02:44:06.888Z,7.97
2019-01-15T02:46:35.604Z,11.40
2019-01-15T02:49:03.977Z,5.80
2019-01-15T02:51:32.765Z,8.98
2019-01-15T02:54:02.546Z,7.65
2019-01-15T02:56:31.234Z,6.90
2019-01-15T02:58:59.477Z,7.83
2019-01-15T03:01:28.045Z,7.70
2019-01-15T03:03:56.401Z,9.45
2019-01-15T03:06:25.003Z,7.55
2019-01-15T03:08:53.663Z,8.13
2019-01-15T03:11:22.152Z,6.62
2019-01-15T03:13:50.907Z,7.60
2019-01-15T03:16:20.383Z,7.72
2019-01-15T03:18:49.967Z,6.78
2019-01-15T03:21:19.632Z,8.75
2019-01-15T03:23:48.025Z,8.30
2019-01-15T03:26:16.587Z,6.65
2019-01-15T03:28:45.292Z,7.95
2019-01-15T03:31:13.776Z,9.43
2019-01-15T03:33:43.657Z,8.57
2019-01-15T03:36:12.342Z,6.28
2019-01-15T03:38:40.305Z,8.83
2019-01-15T03:41:08.827Z,7.93
2019-01-15T03:43:37.257Z,10.53
2019-01-15T03:46:05.219Z,6.80
2019-01-15T03:48:34.332Z,12.05
2019-01-15T03:51:02.437Z,11.18
2019-01-15T03:53:30.675Z,8.08
2019-01-15T03:55:58.859Z,7.92
2019-01-15T03:58:27.212Z,6.33
2019-01-15T04:00:55.432Z,8.90
2019-01-15T04:03:23.871Z,11.22
2019-01-15T04:05:52.112Z,9.10
2019-01-15T04:08:20.340Z,8.80
2019-01-15T04:10:48.353Z,10.40
2019-01-15T04:13:16.570Z,8.70
2019-01-15T04:15:44.824Z,9.60
2019-01-15T04:18:14.015Z,9.80
2019-01-15T04:20:42.375Z,8.08
2019-01-15T04:23:10.491Z,7.67
2019-01-15T04:25:38.639Z,9.50
2019-01-15T04:28:07.797Z,8.60
2019-01-15T04:30:36.231Z,8.58
2019-01-15T04:33:04.588Z,7.47
2019-01-15T04:35:33.102Z,7.00
2019-01-15T04:38:01.885Z,7.45
2019-01-15T04:40:30.648Z,7.87
2019-01-15T04:43:00.062Z,8.63
2019-01-15T04:45:28.813Z,8.03
2019-01-15T04:47:59.734Z,6.55
2019-01-15T04:50:28.271Z,7.00
2019-01-15T04:53:03.239Z,6.83
2019-01-15T04:55:31.767Z,5.70
2019-01-15T04:58:00.420Z,9.03
2019-01-15T05:00:29.053Z,5.70
2019-01-15T05:03:00.879Z,3.55
2019-01-15T05:05:28.963Z,7.05
2019-01-15T05:07:57.257Z,5.12
2019-01-15T05:10:25.316Z,6.10
2019-01-15T05:12:53.636Z,7.40
2019-01-15T05:15:21.647Z,5.75
2019-01-15T05:17:49.781Z,8.28
2019-01-15T05:20:21.864Z,6.10
2019-01-15T05:22:50.773Z,5.80
2019-01-15T05:25:19.696Z,8.90
2019-01-15T05:27:47.866Z,5.25
2019-01-15T05:30:20.985Z,5.85
2019-01-15T05:32:50.948Z,6.47
2019-01-15T05:35:19.085Z,7.62
2019-01-15T05:37:47.173Z,8.33
2019-01-15T05:40:15.911Z,7.08
2019-01-15T05:42:44.079Z,6.55
2019-01-15T05:45:16.385Z,6.78
2019-01-15T05:47:44.983Z,6.90
2019-01-15T05:50:16.900Z,7.40
2019-01-15T05:52:45.140Z,10.03
2019-01-15T05:55:13.271Z,9.47
2019-01-15T05:57:41.440Z,8.48
2019-01-15T06:00:11.325Z,7.65
2019-01-15T06:02:39.340Z,4.75
2019-01-15T06:05:08.712Z,5.62
2019-01-15T06:07:36.879Z,4.45
2019-01-15T06:10:07.080Z,4.00
2019-01-15T06:12:35.203Z,6.80
2019-01-15T06:15:03.733Z,5.78
2019-01-15T06:17:32.056Z,3.08
2019-01-15T06:20:00.107Z,6.45
2019-01-15T06:22:28.334Z,6.35
2019-01-15T06:24:56.660Z,4.67
2019-01-15T06:27:24.730Z,3.55
2019-01-15T06:29:52.815Z,4.22
2019-01-15T06:32:21.951Z,4.33
2019-01-15T06:34:50.075Z,5.20
2019-01-15T06:37:18.325Z,4.60
2019-01-15T06:39:48.465Z,4.70
2019-01-15T06:42:16.605Z,4.87
2019-01-15T06:44:44.820Z,3.67
2019-01-15T06:47:13.100Z,4.97
2019-01-15T06:49:41.479Z,4.90
2019-01-15T06:52:09.529Z,6.08
2019-01-15T06:54:37.829Z,4.65
2019-01-15T06:57:05.785Z,4.40
2019-01-15T06:59:34.056Z,4.28
2019-01-15T07:02:02.189Z,4.00
2019-01-15T07:04:30.511Z,5.55
2019-01-15T07:06:58.698Z,5.00
2019-01-15T07:09:26.984Z,5.73
2019-01-15T07:11:55.272Z,6.37
2019-01-15T07:14:25.634Z,4.37
2019-01-15T07:16:53.525Z,4.10
2019-01-15T07:19:21.705Z,4.28
2019-01-15T07:21:50.051Z,4.87
2019-01-15T07:24:18.310Z,5.72
2019-01-15T07:26:46.646Z,6.55
2019-01-15T07:29:15.805Z,4.27
2019-01-15T07:31:43.993Z,5.22
2019-01-15T07:34:12.121Z,5.28
2019-01-15T07:36:40.548Z,4.28
2019-01-15T07:39:09.367Z,4.00
2019-01-15T07:41:37.737Z,4.37
2019-01-15T07:44:06.871Z,5.12
2019-01-15T07:46:35.296Z,5.85
2019-01-15T07:49:03.484Z,5.08
2019-01-15T07:51:31.688Z,6.95
2019-01-15T07:53:59.923Z,5.45
2019-01-15T07:56:28.207Z,4.85
2019-01-15T07:58:56.315Z,9.13
2019-01-15T08:01:24.834Z,5.80
2019-01-15T08:03:53.132Z,5.65
2019-01-15T08:06:21.426Z,5.10
2019-01-15T08:08:49.541Z,4.45
2019-01-15T08:11:17.837Z,5.62
2019-01-15T08:13:46.068Z,5.80
2019-01-15T08:16:14.276Z,5.22
2019-01-15T08:18:42.656Z,6.17
2019-01-15T08:21:10.855Z,5.03
2019-01-15T08:23:39.209Z,5.08
2019-01-15T08:26:07.439Z,4.97
2019-01-15T08:28:35.842Z,5.53
2019-01-15T08:31:05.282Z,4.95
2019-01-15T08:33:35.493Z,5.42
2019-01-15T08:36:03.967Z,4.30
2019-01-15T08:38:32.373Z,4.78
2019-01-15T08:41:00.381Z,4.45
2019-01-15T08:43:28.664Z,5.60
2019-01-15T08:45:56.890Z,6.12
2019-01-15T08:48:27.383Z,4.30
2019-01-15T08:50:56.589Z,6.45
2019-01-15T08:53:25.516Z,5.45
2019-01-15T08:55:57.784Z,4.08
2019-01-15T08:58:25.880Z,4.45
2019-01-15T09:00:54.123Z,4.40
2019-01-15T09:03:22.329Z,4.23
2019-01-15T09:05:50.653Z,4.60
2019-01-15T09:08:19.047Z,4.20
2019-01-15T09:10:47.352Z,4.00
2019-01-15T09:13:15.809Z,4.30
2019-01-15T09:15:44.327Z,5.40
2019-01-15T09:18:12.850Z,3.30
2019-01-15T09:20:41.022Z,4.50
2019-01-15T09:23:09.357Z,4.05
2019-01-15T09:25:37.676Z,5.60
2019-01-15T09:28:05.850Z,3.00
2019-01-15T09:30:35.135Z,2.92
2019-01-15T09:33:03.999Z,4.47
2019-01-15T09:35:32.311Z,3.60
2019-01-15T09:38:00.757Z,2.80
2019-01-15T09:40:29.279Z,3.10
2019-01-15T09:42:57.557Z,3.02
2019-01-15T09:45:25.850Z,2.87
2019-01-15T09:48:19.133Z,2.62
2019-01-15T09:50:47.471Z,2.60
2019-01-15T09:53:15.713Z,2.60
2019-01-15T09:55:44.192Z,3.30
2019-01-15T09:58:12.508Z,3.60
2019-01-15T10:00:40.731Z,3.77
2019-01-15T10:03:09.062Z,2.30
2019-01-15T10:05:37.191Z,2.33
2019-01-15T10:08:05.164Z,2.42
2019-01-15T10:10:33.370Z,2.50
2019-01-15T10:13:01.644Z,2.92
2019-01-15T10:15:29.769Z,3.95
2019-01-15T10:17:57.996Z,2.40
2019-01-15T10:20:26.274Z,2.65
2019-01-15T10:22:54.500Z,2.90
2019-01-15T10:25:29.989Z,4.13
2019-01-15T10:27:58.358Z,2.25
2019-01-15T10:30:50.224Z,3.30
2019-01-15T10:33:31.936Z,3.23
2019-01-15T10:35:59.159Z,3.08
2019-01-15T10:38:29.204Z,3.12
2019-01-15T10:40:58.000Z,3.05
2019-01-15T10:43:27.355Z,2.80
2019-01-15T10:45:58.501Z,2.92
2019-01-15T10:48:26.633Z,2.12
2019-01-15T10:50:54.845Z,2.30
2019-01-15T10:53:23.340Z,2.15
2019-01-15T10:55:51.709Z,2.25
2019-01-15T10:58:20.225Z,2.80
2019-01-15T11:00:48.546Z,2.15
2019-01-15T11:03:16.586Z,2.80
2019-01-15T11:05:45.003Z,3.10
2019-01-15T11:08:13.276Z,2.42
2019-01-15T11:10:41.543Z,2.03
2019-01-15T11:13:09.869Z,2.70
2019-01-15T11:15:43.140Z,2.70
2019-01-15T11:18:08.076Z,2.77
2019-01-15T11:20:37.192Z,2.25
2019-01-15T11:23:05.444Z,1.70
2019-01-15T11:25:33.661Z,1.90
2019-01-15T11:28:01.931Z,1.90
2019-01-15T11:30:30.316Z,1.57
2019-01-15T11:32:58.396Z,2.20
2019-01-15T11:35:28.365Z,2.40
2019-01-15T11:37:56.448Z,1.50
2019-01-15T11:40:24.639Z,3.00
2019-01-15T11:42:52.927Z,1.50
2019-01-15T11:45:20.980Z,1.52
2019-01-15T11:47:50.090Z,1.67
2019-01-15T11:50:18.490Z,2.42
2019-01-15T11:52:46.685Z,2.90
2019-01-15T11:55:14.962Z,2.52
2019-01-15T11:57:43.272Z,1.60
2019-01-15T12:00:20.297Z,1.72
2019-01-15T12:02:56.080Z,1.95
2019-01-15T12:05:39.683Z,2.20
2019-01-15T12:08:21.233Z,2.70
2019-01-15T12:11:08.771Z,1.57
2019-01-15T12:14:05.589Z,1.80
2019-01-15T12:16:57.685Z,1.50
2019-01-15T12:19:35.840Z,1.92
2019-01-15T12:22:22.212Z,1.42
2019-01-15T12:25:18.436Z,2.90
2019-01-15T12:27:56.312Z,2.85
2019-01-15T12:30:43.857Z,1.50
2019-01-15T12:33:46.839Z,4.53
2019-01-15T12:36:32.986Z,2.60
2019-01-15T12:39:20.520Z,1.85
2019-01-15T12:42:16.265Z,2.37
2019-01-15T12:45:21.720Z,2.60
2019-01-15T12:48:09.199Z,1.95
2019-01-15T12:50:56.471Z,2.95
2019-01-15T12:53:42.356Z,3.00
2019-01-15T12:56:28.241Z,2.33
2019-01-15T12:59:06.639Z,2.90
2019-01-15T13:01:52.748Z,3.70
2019-01-15T13:04:34.635Z,3.10
2019-01-15T13:07:34.412Z,3.17
2019-01-15T13:10:20.448Z,2.52
2019-01-15T13:13:03.684Z,3.77
2019-01-15T13:15:57.322Z,3.50
2019-01-15T13:18:39.644Z,3.00
2019-01-15T13:21:35.974Z,2.90
2019-01-15T13:24:27.079Z,2.52
2019-01-15T13:27:20.368Z,2.75
2019-01-15T13:30:00.675Z,2.90
2019-01-15T13:32:57.479Z,3.00
2019-01-15T13:35:46.773Z,3.30
2019-01-15T13:38:52.750Z,3.10
2019-01-15T13:41:40.397Z,3.35
2019-01-15T13:44:32.277Z,3.42
2019-01-15T13:47:37.949Z,3.65
2019-01-15T13:50:28.515Z,4.08
2019-01-15T13:53:29.204Z,4.33
2019-01-15T13:56:20.003Z,4.50
2019-01-15T13:59:07.478Z,3.90
2019-01-15T14:01:51.710Z,4.12
2019-01-15T14:04:39.191Z,4.10
2019-01-15T14:07:25.078Z,4.25
2019-01-15T14:10:15.832Z,4.20
2019-01-15T14:13:03.681Z,4.22
2019-01-15T14:15:54.261Z,4.87
2019-01-15T14:18:47.445Z,5.92
2019-01-15T14:21:40.855Z,5.30
2019-01-15T14:24:28.843Z,6.05
2019-01-15T14:27:19.241Z,4.87
2019-01-15T14:30:12.865Z,5.15
2019-01-15T14:33:09.421Z,4.40
2019-01-15T14:36:15.008Z,5.72
2019-01-15T14:39:01.380Z,5.67
2019-01-15T14:41:47.946Z,5.37
2019-01-15T14:44:47.798Z,6.28
2019-01-15T14:47:41.300Z,5.30
2019-01-15T14:50:29.904Z,4.60
2019-01-15T14:53:16.424Z,7.90
2019-01-15T14:56:12.523Z,8.35
2019-01-15T14:59:08.918Z,6.42
2019-01-15T15:01:56.542Z,5.40
2019-01-15T15:04:44.982Z,7.10
2019-01-15T15:07:50.612Z,5.90
2019-01-15T15:10:36.789Z,6.20
2019-01-15T15:13:23.283Z,6.10
2019-01-15T15:16:10.850Z,5.80
2019-01-15T15:19:16.485Z,6.50
2019-01-15T15:22:02.668Z,7.42
2019-01-15T15:24:59.492Z,6.65
2019-01-15T15:27:59.047Z,6.53
2019-01-15T15:30:46.867Z,5.78
2019-01-15T15:33:22.540Z,6.33
2019-01-15T15:36:19.065Z,6.35
2019-01-15T15:39:04.752Z,6.37
2019-01-15T15:42:01.143Z,6.45
2019-01-15T15:44:47.348Z,6.72
2019-01-15T15:47:35.041Z,8.40
2019-01-15T15:50:22.307Z,6.17
2019-01-15T15:53:08.767Z,7.75
2019-01-15T15:55:54.775Z,6.80
2019-01-15T15:58:51.493Z,6.87
2019-01-15T16:01:44.816Z,5.80
2019-01-15T16:04:35.069Z,7.50
2019-01-15T16:07:34.824Z,5.65
2019-01-15T16:10:41.293Z,7.47
2019-01-15T16:13:47.155Z,5.75
2019-01-15T16:16:49.620Z,8.58
2019-01-15T16:19:47.270Z,6.08
2019-01-15T16:22:26.432Z,6.50
2019-01-15T16:25:16.340Z,5.30
2019-01-15T16:27:58.280Z,6.05
2019-01-15T16:30:42.821Z,7.37
2019-01-15T16:33:30.835Z,5.83
2019-01-15T16:36:21.375Z,6.35
2019-01-15T16:39:07.543Z,7.35
2019-01-15T16:41:53.553Z,6.20
2019-01-15T16:44:53.618Z,6.10
2019-01-15T16:47:31.813Z,8.10
2019-01-15T16:50:15.517Z,7.50
2019-01-15T16:53:03.154Z,8.03
2019-01-15T16:55:56.693Z,9.60
2019-01-15T16:58:42.913Z,7.23
2019-01-15T17:01:42.849Z,7.00
2019-01-15T17:04:33.300Z,7.33
2019-01-15T17:07:35.804Z,8.43
2019-01-15T17:10:39.789Z,7.05
2019-01-15T17:13:26.116Z,7.20
2019-01-15T17:16:12.337Z,7.60
2019-01-15T17:18:58.700Z,9.80
2019-01-15T17:21:46.257Z,9.10
2019-01-15T17:24:28.717Z,7.47
2019-01-15T17:27:23.891Z,9.10
2019-01-15T17:30:11.205Z,7.70
2019-01-15T17:33:04.750Z,9.43
2019-01-15T17:35:55.575Z,8.70
2019-01-15T17:38:39.530Z,7.92
2019-01-15T17:41:17.415Z,7.30
2019-01-15T17:44:06.080Z,9.48
2019-01-15T17:47:03.691Z,8.30
2019-01-15T17:49:51.387Z,9.48
2019-01-15T17:52:43.580Z,8.35
2019-01-15T17:55:36.450Z,8.40
2019-01-15T17:58:29.911Z,9.60
2019-01-15T18:01:36.270Z,9.03
2019-01-15T18:04:39.165Z,9.48
2019-01-15T18:07:41.991Z,9.63
2019-01-15T18:10:31.927Z,9.03
2019-01-15T18:13:19.006Z,9.00
2019-01-15T18:16:06.422Z,9.48
2019-01-15T18:18:44.876Z,7.75
2019-01-15T18:21:35.116Z,8.78
2019-01-15T18:24:25.405Z,8.43
2019-01-15T18:27:27.929Z,11.88
2019-01-15T18:30:18.308Z,9.43
2019-01-15T18:33:04.752Z,8.08
2019-01-15T18:35:54.816Z,7.78
2019-01-15T18:38:42.792Z,9.28
2019-01-15T18:41:48.764Z,9.60
2019-01-15T18:44:51.428Z,7.70
2019-01-15T18:47:51.179Z,8.33
2019-01-15T18:50:37.356Z,8.15
2019-01-15T18:53:24.795Z,12.10
2019-01-15T18:56:18.699Z,7.25
2019-01-15T18:59:05.312Z,7.58
2019-01-15T19:01:51.813Z,7.60
2019-01-15T19:04:57.176Z,8.73
2019-01-15T19:07:56.592Z,8.28
2019-01-15T19:10:42.789Z,8.10
2019-01-15T19:13:36.115Z,9.80
2019-01-15T19:16:26.504Z,8.53
2019-01-15T19:19:19.048Z,6.97
2019-01-15T19:22:12.361Z,7.92
2019-01-15T19:24:58.812Z,7.65
2019-01-15T19:27:58.440Z,7.80
2019-01-15T19:30:48.768Z,8.03
2019-01-15T19:33:34.901Z,9.33
2019-01-15T19:36:33.268Z,9.93
2019-01-15T19:39:15.455Z,7.83
2019-01-15T19:42:11.235Z,8.13
2019-01-15T19:44:55.305Z,6.70
2019-01-15T19:47:48.596Z,6.95
2019-01-15T19:50:45.388Z,7.90
2019-01-15T19:53:36.703Z,8.37
2019-01-15T19:56:16.519Z,6.45
2019-01-15T19:59:08.557Z,7.50
2019-01-15T20:01:50.900Z,7.20
2019-01-15T20:04:41.446Z,6.80
2019-01-15T20:07:32.268Z,6.33
2019-01-15T20:10:34.951Z,6.62
2019-01-15T20:13:21.727Z,6.78
2019-01-15T20:16:15.172Z,6.87
2019-01-15T20:19:08.484Z,7.78
2019-01-15T20:21:56.159Z,7.75
2019-01-15T20:24:42.469Z,7.22
2019-01-15T20:27:30.169Z,8.27
2019-01-15T20:30:16.143Z,7.75
2019-01-15T20:33:14.616Z,7.45
2019-01-15T20:36:11.391Z,8.33
2019-01-15T20:39:10.018Z,8.05
2019-01-15T20:42:06.951Z,8.60
2019-01-15T20:44:56.618Z,8.85
2019-01-15T20:47:53.320Z,7.85
2019-01-15T20:51:03.860Z,9.15
2019-01-15T20:53:49.233Z,7.35
2019-01-15T20:56:44.399Z,7.72
2019-01-15T20:59:35.268Z,9.25
2019-01-15T21:02:40.375Z,7.35
2019-01-15T21:05:27.080Z,9.10
2019-01-15T21:08:15.101Z,9.00
2019-01-15T21:11:13.892Z,10.40
2019-01-15T21:14:14.214Z,7.25
2019-01-15T21:17:25.162Z,7.57
2019-01-15T21:20:05.478Z,10.08
2019-01-15T21:23:11.866Z,8.80
2019-01-15T21:25:59.160Z,8.05
2019-01-15T21:28:51.931Z,10.45
2019-01-15T21:31:49.880Z,7.70
2019-01-15T21:37:54.363Z,9.00
2019-01-15T21:40:55.555Z,8.70
2019-01-15T21:43:47.734Z,8.00
2019-01-15T21:47:01.959Z,8.08
2019-01-15T21:50:07.421Z,8.23
2019-01-15T21:53:08.533Z,9.60
2019-01-15T21:55:51.762Z,8.35
2019-01-15T21:58:49.960Z,9.05
2019-01-15T22:01:43.695Z,10.05
2019-01-15T22:04:38.709Z,8.58
2019-01-15T22:07:34.147Z,11.20
2019-01-15T22:10:19.253Z,10.88
2019-01-15T22:13:26.003Z,10.63
2019-01-15T22:16:40.385Z,10.45
2019-01-15T22:19:40.273Z,10.38
2019-01-15T22:22:26.575Z,10.40
2019-01-15T22:25:12.551Z,10.30
2019-01-15T22:28:11.448Z,13.45
2019-01-15T22:31:01.447Z,12.20
2019-01-15T22:33:38.031Z,12.47
2019-01-15T22:36:24.790Z,10.93
2019-01-15T22:39:27.590Z,9.35
2019-01-15T22:42:27.600Z,10.23
2019-01-15T22:45:33.980Z,9.30
2019-01-15T22:48:20.789Z,10.72
2019-01-15T22:51:17.530Z,10.45
2019-01-15T22:54:08.540Z,10.60
2019-01-15T22:56:54.415Z,11.05
2019-01-15T22:59:41.333Z,9.97
2019-01-15T23:02:38.690Z,10.43
2019-01-15T23:05:25.814Z,10.58
2019-01-15T23:08:22.971Z,10.65
2019-01-15T23:11:11.033Z,9.83
2019-01-15T23:14:05.079Z,9.80
2019-01-15T23:16:44.309Z,9.75
2019-01-15T23:19:31.221Z,10.53
2019-01-15T23:22:31.179Z,10.45
2019-01-15T23:25:17.438Z,11.77
2019-01-15T23:28:15.100Z,10.08
2019-01-15T23:31:27.678Z,10.18
2019-01-15T23:34:14.192Z,10.13
2019-01-15T23:37:04.330Z,12.82
2019-01-15T23:39:59.227Z,11.25
2019-01-15T23:42:50.076Z,11.35
2019-01-15T23:45:35.699Z,10.60
2019-01-15T23:48:26.706Z,11.50
2019-01-15T23:51:23.395Z,11.17
2019-01-15T23:54:19.827Z,12.30
2019-01-15T23:56:58.736Z,10.63
2019-01-15T23:59:49.018Z,11.45
